createdAt,value
2023-04-11T00:00:33.242Z,14.50
2023-04-11T00:03:02.754Z,14.50
2023-04-11T00:05:32.332Z,14.53
2023-04-11T00:08:00.686Z,14.54
2023-04-11T00:10:28.557Z,14.53
2023-04-11T00:12:56.796Z,14.54
2023-04-11T00:15:26.763Z,14.54
2023-04-11T00:17:55.131Z,14.50
2023-04-11T00:20:23.125Z,14.51
2023-04-11T00:22:54.260Z,14.50
2023-04-11T00:25:22.465Z,14.58
2023-04-11T00:27:50.373Z,14.49
2023-04-11T00:30:18.248Z,14.19
2023-04-11T00:32:46.792Z,13.77
2023-04-11T00:35:14.732Z,13.39
2023-04-11T00:37:44.383Z,13.11
2023-04-11T00:40:17.783Z,12.99
2023-04-11T00:42:45.720Z,12.99
2023-04-11T00:45:14.037Z,13.02
2023-04-11T00:47:42.230Z,13.05
2023-04-11T00:50:13.941Z,13.09
2023-04-11T00:52:42.183Z,13.05
2023-04-11T00:55:10.804Z,13.16
2023-04-11T00:57:41.920Z,13.20
2023-04-11T01:00:11.836Z,13.23
2023-04-11T01:02:43.237Z,13.27
2023-04-11T01:05:12.604Z,13.30
2023-04-11T01:07:41.221Z,13.38
2023-04-11T01:10:10.264Z,13.40
2023-04-11T01:12:39.687Z,13.40
2023-04-11T01:15:08.616Z,13.49
2023-04-11T01:17:36.725Z,13.55
2023-04-11T01:20:07.807Z,13.58
2023-04-11T01:22:35.918Z,13.61
2023-04-11T01:25:05.844Z,13.65
2023-04-11T01:27:34.397Z,13.64
2023-04-11T01:30:02.629Z,13.72
2023-04-11T01:32:30.537Z,13.78
2023-04-11T01:34:58.552Z,13.79
2023-04-11T01:37:26.485Z,13.75
2023-04-11T01:39:54.355Z,13.83
2023-04-11T01:42:24.099Z,13.83
2023-04-11T01:44:52.073Z,13.76
2023-04-11T01:47:19.958Z,13.86
2023-04-11T01:49:48.049Z,13.89
2023-04-11T01:52:15.939Z,13.85
2023-04-11T01:54:43.911Z,13.94
2023-04-11T01:57:11.806Z,13.95
2023-04-11T01:59:41.043Z,13.91
2023-04-11T02:02:09.001Z,13.89
2023-04-11T02:04:36.948Z,13.88
2023-04-11T02:07:04.852Z,13.85
2023-04-11T02:09:32.935Z,13.86
2023-04-11T02:12:01.188Z,13.85
2023-04-11T02:14:30.047Z,13.83
2023-04-11T02:16:59.464Z,13.85
2023-04-11T02:19:27.383Z,13.87
2023-04-11T02:21:55.370Z,13.87
2023-04-11T02:24:23.253Z,13.88
2023-04-11T02:26:51.140Z,13.86
2023-04-11T02:29:19.077Z,13.90
2023-04-11T02:31:49.476Z,13.89
2023-04-11T02:34:18.875Z,13.91
2023-04-11T02:36:46.892Z,13.90
2023-04-11T02:39:14.971Z,13.89
2023-04-11T02:41:43.311Z,13.90
2023-04-11T02:44:11.867Z,13.93
2023-04-11T02:46:39.894Z,13.95
2023-04-11T02:49:07.777Z,13.94
2023-04-11T02:51:37.021Z,13.92
2023-04-11T02:54:06.147Z,13.98
2023-04-11T02:56:34.996Z,14.00
2023-04-11T02:59:02.893Z,14.03
2023-04-11T03:01:31.112Z,13.97
2023-04-11T03:03:59.238Z,13.94
2023-04-11T03:06:28.197Z,13.99
2023-04-11T03:08:57.772Z,13.98
2023-04-11T03:11:25.855Z,14.01
2023-04-11T03:13:53.828Z,13.94
2023-04-11T03:16:21.769Z,14.03
2023-04-11T03:18:49.707Z,14.04
2023-04-11T03:21:17.693Z,14.09
2023-04-11T03:23:45.594Z,14.13
2023-04-11T03:26:15.847Z,14.14
2023-04-11T03:28:43.777Z,14.17
2023-04-11T03:31:12.034Z,14.15
2023-04-11T03:33:40.104Z,14.17
2023-04-11T03:36:08.929Z,14.11
2023-04-11T03:38:36.930Z,14.06
2023-04-11T03:41:05.015Z,14.04
2023-04-11T03:43:34.308Z,14.03
2023-04-11T03:46:02.169Z,13.98
2023-04-11T03:48:31.070Z,13.98
2023-04-11T03:50:59.028Z,13.98
2023-04-11T03:53:26.890Z,13.98
2023-04-11T03:55:54.847Z,14.00
2023-04-11T03:58:22.732Z,14.07
2023-04-11T04:00:52.033Z,13.89
2023-04-11T04:03:20.094Z,13.54
2023-04-11T04:05:48.142Z,13.19
2023-04-11T04:08:16.331Z,12.99
2023-04-11T04:10:44.235Z,12.85
2023-04-11T04:13:12.246Z,12.77
2023-04-11T04:15:40.119Z,12.72
2023-04-11T04:18:09.586Z,12.61
2023-04-11T04:20:37.518Z,12.56
2023-04-11T04:23:05.639Z,12.49
2023-04-11T04:25:33.638Z,12.46
2023-04-11T04:28:01.540Z,12.48
2023-04-11T04:30:29.690Z,12.50
2023-04-11T04:32:59.183Z,12.55
2023-04-11T04:35:28.717Z,12.61
2023-04-11T04:37:56.817Z,12.70
2023-04-11T04:40:26.157Z,12.81
2023-04-11T04:42:58.645Z,12.89
2023-04-11T04:45:27.098Z,12.99
2023-04-11T04:47:55.075Z,13.07
2023-04-11T04:50:23.301Z,13.13
2023-04-11T04:52:52.644Z,13.11
2023-04-11T04:55:20.778Z,13.19
2023-04-11T04:57:48.651Z,13.19
2023-04-11T05:00:17.092Z,13.22
2023-04-11T05:02:45.128Z,13.22
2023-04-11T05:05:14.035Z,13.22
2023-04-11T05:07:42.609Z,13.23
2023-04-11T05:10:12.113Z,13.25
2023-04-11T05:12:40.560Z,13.19
2023-04-11T05:15:11.675Z,13.21
2023-04-11T05:17:39.618Z,13.17
2023-04-11T05:20:09.125Z,13.18
2023-04-11T05:22:38.070Z,13.18
2023-04-11T05:25:08.840Z,13.25
2023-04-11T05:27:38.169Z,13.31
2023-04-11T05:30:07.182Z,13.32
2023-04-11T05:32:35.158Z,13.34
2023-04-11T05:35:03.182Z,13.28
2023-04-11T05:37:32.365Z,13.36
2023-04-11T05:40:00.504Z,13.39
2023-04-11T05:42:28.490Z,13.43
2023-04-11T05:44:57.749Z,13.47
2023-04-11T05:47:26.056Z,13.51
2023-04-11T05:49:54.025Z,13.56
2023-04-11T05:52:22.039Z,13.58
2023-04-11T05:54:49.943Z,13.70
2023-04-11T05:57:18.201Z,13.74
2023-04-11T05:59:49.798Z,13.81
2023-04-11T06:02:19.305Z,13.89
2023-04-11T06:04:47.495Z,13.92
2023-04-11T06:07:15.470Z,13.96
2023-04-11T06:09:44.435Z,13.99
2023-04-11T06:12:12.417Z,14.03
2023-04-11T06:14:40.745Z,14.04
2023-04-11T06:17:09.734Z,14.09
2023-04-11T06:19:39.382Z,14.07
2023-04-11T06:22:07.515Z,14.13
2023-04-11T06:24:36.165Z,14.16
2023-04-11T06:27:04.530Z,14.21
2023-04-11T06:29:32.555Z,14.23
2023-04-11T06:32:00.640Z,14.36
2023-04-11T06:34:28.690Z,14.45
2023-04-11T06:36:58.475Z,14.55
2023-04-11T06:39:26.592Z,14.64
2023-04-11T06:41:54.567Z,14.71
2023-04-11T06:44:22.662Z,14.78
2023-04-11T06:46:50.905Z,14.84
2023-04-11T06:49:19.055Z,14.85
2023-04-11T06:51:50.057Z,14.83
2023-04-11T06:54:19.600Z,14.74
2023-04-11T06:56:47.611Z,14.73
2023-04-11T06:59:15.758Z,14.71
2023-04-11T07:01:44.007Z,14.66
2023-04-11T07:04:12.212Z,14.68
2023-04-11T07:06:40.396Z,14.68
2023-04-11T07:09:09.657Z,14.64
2023-04-11T07:11:39.593Z,14.66
2023-04-11T07:14:07.725Z,14.70
2023-04-11T07:16:35.709Z,14.75
2023-04-11T07:19:06.132Z,14.79
2023-04-11T07:21:34.222Z,14.78
2023-04-11T07:24:02.229Z,14.94
2023-04-11T07:26:32.705Z,15.07
2023-04-11T07:29:02.239Z,15.18
2023-04-11T07:31:31.034Z,15.25
2023-04-11T07:33:59.208Z,15.31
2023-04-11T07:36:27.739Z,15.36
2023-04-11T07:38:55.890Z,15.46
2023-04-11T07:41:23.896Z,15.50
2023-04-11T07:43:51.913Z,15.55
2023-04-11T07:46:21.474Z,15.54
2023-04-11T07:48:49.616Z,15.56
2023-04-11T07:51:19.025Z,15.60
2023-04-11T07:53:47.152Z,15.53
2023-04-11T07:56:16.492Z,15.60
2023-04-11T07:58:44.613Z,15.63
2023-04-11T08:01:22.746Z,15.64
2023-04-11T08:03:51.048Z,15.63
2023-04-11T08:06:19.135Z,15.70
2023-04-11T08:08:47.551Z,15.72
2023-04-11T08:11:15.568Z,15.68
2023-04-11T08:13:43.617Z,15.70
2023-04-11T08:16:12.520Z,15.75
2023-04-11T08:18:43.206Z,15.76
2023-04-11T08:21:12.614Z,15.81
2023-04-11T08:23:42.432Z,15.87
2023-04-11T08:26:13.089Z,15.93
2023-04-11T08:28:43.050Z,15.92
2023-04-11T08:31:13.476Z,15.96
2023-04-11T08:33:42.999Z,15.89
2023-04-11T08:36:11.744Z,15.87
2023-04-11T08:38:39.854Z,15.87
2023-04-11T08:41:08.040Z,15.83
2023-04-11T08:43:36.049Z,15.90
2023-04-11T08:46:04.184Z,15.99
2023-04-11T08:48:32.494Z,16.06
2023-04-11T08:51:01.955Z,16.13
2023-04-11T08:53:30.282Z,16.20
2023-04-11T08:55:59.942Z,16.28
2023-04-11T08:58:28.378Z,16.31
2023-04-11T09:00:56.273Z,16.39
2023-04-11T09:03:24.446Z,16.33
2023-04-11T09:05:52.521Z,16.31
2023-04-11T09:08:21.865Z,16.24
2023-04-11T09:10:50.100Z,16.24
2023-04-11T09:13:22.841Z,16.27
2023-04-11T09:16:05.476Z,16.23
2023-04-11T09:18:34.114Z,16.17
2023-04-11T09:21:04.274Z,16.03
2023-04-11T09:23:33.570Z,16.00
2023-04-11T09:26:01.495Z,16.02
2023-04-11T09:28:29.687Z,16.08
2023-04-11T09:30:57.922Z,16.19
2023-04-11T09:33:29.967Z,16.25
2023-04-11T09:35:57.903Z,16.24
2023-04-11T09:38:30.840Z,16.22
2023-04-11T09:41:00.762Z,16.26
2023-04-11T09:43:28.712Z,16.28
2023-04-11T09:46:10.197Z,16.17
2023-04-11T09:49:01.130Z,16.05
2023-04-11T09:53:57.999Z,15.88
2023-04-11T09:56:28.433Z,15.72
2023-04-11T09:58:56.562Z,15.62
2023-04-11T10:01:25.132Z,15.53
2023-04-11T10:03:54.149Z,15.49
2023-04-11T10:06:26.430Z,15.50
2023-04-11T10:08:54.935Z,15.53
2023-04-11T10:11:24.398Z,15.45
2023-04-11T10:13:53.800Z,15.54
2023-04-11T10:16:24.146Z,15.50
2023-04-11T10:19:28.555Z,15.47
2023-04-11T10:21:56.820Z,15.33
2023-04-11T10:24:26.762Z,15.30
2023-04-11T10:26:55.635Z,15.31
2023-04-11T10:29:53.583Z,15.29
2023-04-11T10:32:22.740Z,15.26
2023-04-11T10:35:33.140Z,15.26
2023-04-11T10:38:01.134Z,15.20
2023-04-11T10:40:28.984Z,15.17
2023-04-11T10:42:57.467Z,15.13
2023-04-11T10:45:27.355Z,15.06
2023-04-11T10:48:12.883Z,15.03
2023-04-11T10:50:42.397Z,14.91
2023-04-11T10:53:14.387Z,14.87
2023-04-11T10:55:47.179Z,14.87
2023-04-11T10:58:19.136Z,14.92
2023-04-11T11:01:32.419Z,14.94
2023-04-11T11:04:12.311Z,14.93
2023-04-11T11:06:47.286Z,14.99
2023-04-11T11:09:23.259Z,15.00
2023-04-11T11:12:06.673Z,14.97
2023-04-11T11:14:34.716Z,14.94
2023-04-11T11:17:03.082Z,14.92
2023-04-11T11:19:33.382Z,14.84
2023-04-11T11:22:04.117Z,14.96
2023-04-11T11:24:32.813Z,14.93
2023-04-11T11:27:00.786Z,14.97
2023-04-11T11:29:32.290Z,14.96
2023-04-11T11:32:01.310Z,14.97
2023-04-11T11:34:30.034Z,14.88
2023-04-11T11:36:59.609Z,14.94
2023-04-11T11:39:27.556Z,14.93
2023-04-11T11:41:56.143Z,14.90
2023-04-11T11:44:24.531Z,14.85
2023-04-11T11:47:02.549Z,14.84
2023-04-11T11:49:44.722Z,14.88
2023-04-11T11:52:14.177Z,14.83
2023-04-11T11:54:46.630Z,14.77
2023-04-11T11:57:22.786Z,14.83
2023-04-11T11:59:54.491Z,14.82
2023-04-11T12:02:23.544Z,14.78
2023-04-11T12:04:52.098Z,14.73
2023-04-11T12:07:23.686Z,14.70
2023-04-11T12:09:57.086Z,14.77
2023-04-11T12:12:25.387Z,14.78
2023-04-11T12:14:54.595Z,14.83
2023-04-11T12:17:22.583Z,14.89
2023-04-11T12:19:50.614Z,14.91
2023-04-11T12:22:18.894Z,14.93
2023-04-11T12:24:48.299Z,14.92
2023-04-11T12:27:16.342Z,14.95
2023-04-11T12:29:44.390Z,14.95
2023-04-11T12:32:12.327Z,14.98
2023-04-11T12:34:40.349Z,14.95
2023-04-11T12:37:08.948Z,14.91
2023-04-11T12:39:37.810Z,14.91
2023-04-11T12:42:07.974Z,14.88
2023-04-11T12:44:36.511Z,14.89
2023-04-11T12:47:04.444Z,14.94
2023-04-11T12:49:32.321Z,15.02
2023-04-11T12:52:00.242Z,15.00
2023-04-11T12:54:28.310Z,15.01
2023-04-11T12:56:58.168Z,14.97
2023-04-11T12:59:28.177Z,14.81
2023-04-11T13:01:57.738Z,14.75
2023-04-11T13:04:25.981Z,14.75
2023-04-11T13:06:54.334Z,14.68
2023-04-11T13:09:22.465Z,14.67
2023-04-11T13:11:50.554Z,14.64
2023-04-11T13:14:18.644Z,14.63
2023-04-11T13:16:48.394Z,14.52
2023-04-11T13:19:17.366Z,14.54
2023-04-11T13:21:46.204Z,14.51
2023-04-11T13:24:14.381Z,14.52
2023-04-11T13:26:44.875Z,14.52
2023-04-11T13:29:13.016Z,14.57
2023-04-11T13:31:41.016Z,14.67
2023-04-11T13:34:10.364Z,14.71
2023-04-11T13:36:38.325Z,14.62
2023-04-11T13:39:07.478Z,14.58
2023-04-11T13:41:35.603Z,14.51
2023-04-11T13:44:03.803Z,14.49
2023-04-11T13:46:31.821Z,14.47
2023-04-11T13:49:00.212Z,14.45
2023-04-11T13:51:30.047Z,14.42
2023-04-11T13:53:57.997Z,14.43
2023-04-11T13:56:26.565Z,14.49
2023-04-11T13:58:54.770Z,14.49
2023-04-11T14:01:23.112Z,14.50
2023-04-11T14:03:51.293Z,14.41
2023-04-11T14:06:19.764Z,14.45
2023-04-11T14:08:50.660Z,14.48
2023-04-11T14:11:19.148Z,14.46
2023-04-11T14:13:47.245Z,14.43
2023-04-11T14:16:15.506Z,14.40
2023-04-11T14:18:44.729Z,14.37
2023-04-11T14:21:12.761Z,14.37
2023-04-11T14:23:41.393Z,14.36
2023-04-11T14:26:11.130Z,14.34
2023-04-11T14:28:41.153Z,14.35
2023-04-11T14:31:09.829Z,14.30
2023-04-11T14:33:37.938Z,14.23
2023-04-11T14:36:06.349Z,14.24
2023-04-11T14:38:35.802Z,14.19
2023-04-11T14:41:04.925Z,14.19
2023-04-11T14:43:34.561Z,14.17
2023-04-11T14:46:02.463Z,14.13
2023-04-11T14:48:30.560Z,14.11
2023-04-11T14:50:58.413Z,14.10
2023-04-11T14:53:26.393Z,14.06
2023-04-11T14:55:54.263Z,14.06
2023-04-11T14:58:22.147Z,13.99
2023-04-11T15:00:51.545Z,14.04
2023-04-11T15:03:20.212Z,14.04
2023-04-11T15:05:48.316Z,14.02
2023-04-11T15:08:16.263Z,14.06
2023-04-11T15:10:44.198Z,14.07
2023-04-11T15:13:13.063Z,14.06
2023-04-11T15:15:41.197Z,14.08
2023-04-11T15:18:23.696Z,14.11
2023-04-11T15:20:52.494Z,14.07
2023-04-11T15:23:20.668Z,14.13
2023-04-11T15:25:48.935Z,14.11
2023-04-11T15:28:16.851Z,14.18
2023-04-11T15:30:48.338Z,14.17
2023-04-11T15:33:17.315Z,14.18
2023-04-11T15:35:47.014Z,14.17
2023-04-11T15:38:20.130Z,14.17
2023-04-11T15:40:50.537Z,14.16
2023-04-11T15:43:18.517Z,14.18
2023-04-11T15:45:46.376Z,14.18
2023-04-11T15:48:14.314Z,14.18
2023-04-11T15:50:42.364Z,14.21
2023-04-11T15:53:11.888Z,14.23
2023-04-11T15:55:40.323Z,14.21
2023-04-11T15:58:08.205Z,14.23
2023-04-11T16:00:36.465Z,14.19
2023-04-11T16:03:04.748Z,14.25
2023-04-11T16:05:32.853Z,14.24
2023-04-11T16:08:00.745Z,14.29
2023-04-11T16:10:31.098Z,14.33
2023-04-11T16:12:59.057Z,14.35
2023-04-11T16:15:26.944Z,14.36
2023-04-11T16:17:54.811Z,14.39
2023-04-11T16:20:22.960Z,14.42
2023-04-11T16:22:50.947Z,14.43
2023-04-11T16:25:21.205Z,14.49
2023-04-11T16:27:51.309Z,14.53
2023-04-11T16:30:19.328Z,14.55
2023-04-11T16:32:47.277Z,14.51
2023-04-11T16:35:15.485Z,14.53
2023-04-11T16:37:43.551Z,14.57
2023-04-11T16:40:12.165Z,14.63
2023-04-11T16:42:40.090Z,14.63
2023-04-11T16:45:10.928Z,14.68
2023-04-11T16:47:39.103Z,14.69
2023-04-11T16:50:08.029Z,14.74
2023-04-11T16:52:36.129Z,14.78
2023-04-11T16:55:04.080Z,14.82
2023-04-11T16:57:33.344Z,14.75
2023-04-11T17:00:06.697Z,14.83
2023-04-11T17:02:36.106Z,14.85
2023-04-11T17:05:04.099Z,14.88
2023-04-11T17:07:33.341Z,14.85
2023-04-11T17:10:01.482Z,14.87
2023-04-11T17:12:30.009Z,14.92
2023-04-11T17:14:59.354Z,14.98
2023-04-11T17:17:27.329Z,15.03
2023-04-11T17:19:57.049Z,15.05
2023-04-11T17:22:25.324Z,15.02
2023-04-11T17:24:54.079Z,15.03
2023-04-11T17:27:22.285Z,15.09
2023-04-11T17:29:50.207Z,15.08
2023-04-11T17:32:18.082Z,15.08
2023-04-11T17:34:47.631Z,15.10
2023-04-11T17:37:16.890Z,15.07
2023-04-11T17:39:46.386Z,15.08
2023-04-11T17:42:14.760Z,15.06
2023-04-11T17:44:42.830Z,15.03
2023-04-11T17:47:10.798Z,15.05
2023-04-11T17:49:38.751Z,15.06
2023-04-11T17:52:06.650Z,15.13
2023-04-11T17:54:36.483Z,15.11
2023-04-11T17:57:04.448Z,15.03
2023-04-11T17:59:32.811Z,15.00
2023-04-11T18:02:00.911Z,15.00
2023-04-11T18:04:29.398Z,15.03
2023-04-11T18:06:58.219Z,15.11
2023-04-11T18:09:28.068Z,15.14
2023-04-11T18:11:58.343Z,15.26
2023-04-11T18:14:26.288Z,15.46
2023-04-11T18:16:54.163Z,15.57
2023-04-11T18:19:22.023Z,15.64
2023-04-11T18:21:50.704Z,15.63
2023-04-11T18:24:18.622Z,15.52
2023-04-11T18:26:47.050Z,15.36
2023-04-11T18:29:16.327Z,15.21
2023-04-11T18:31:44.367Z,15.03
2023-04-11T18:34:12.449Z,14.91
2023-04-11T18:36:40.681Z,14.78
2023-04-11T18:39:09.071Z,14.66
2023-04-11T18:41:37.033Z,14.57
2023-04-11T18:44:06.069Z,14.56
2023-04-11T18:46:37.095Z,14.53
2023-04-11T18:49:05.988Z,14.52
2023-04-11T18:51:35.642Z,14.53
2023-04-11T18:54:03.511Z,14.55
2023-04-11T18:56:31.568Z,14.55
2023-04-11T18:59:05.991Z,14.56
2023-04-11T19:01:38.607Z,14.53
2023-04-11T19:04:07.758Z,14.54
2023-04-11T19:06:36.394Z,14.55
2023-04-11T19:09:04.541Z,14.48
2023-04-11T19:11:32.408Z,14.43
2023-04-11T19:14:01.448Z,14.39
2023-04-11T19:16:29.992Z,14.39
2023-04-11T19:18:59.555Z,14.35
2023-04-11T19:21:27.967Z,14.39
2023-04-11T19:23:57.715Z,14.43
2023-04-11T19:26:27.445Z,14.45
2023-04-11T19:28:55.472Z,14.21
2023-04-11T19:31:25.730Z,13.86
2023-04-11T19:33:54.413Z,13.49
2023-04-11T19:36:23.821Z,13.11
2023-04-11T19:38:51.956Z,12.91
2023-04-11T19:41:20.476Z,12.87
2023-04-11T19:43:48.655Z,12.87
2023-04-11T19:46:16.838Z,12.91
2023-04-11T19:48:44.920Z,12.93
2023-04-11T19:51:12.988Z,12.92
2023-04-11T19:53:42.252Z,12.97
2023-04-11T19:56:11.011Z,13.03
2023-04-11T19:58:39.966Z,13.10
2023-04-11T20:01:08.341Z,13.16
2023-04-11T20:03:36.938Z,13.14
2023-04-11T20:06:05.927Z,13.27
2023-04-11T20:08:33.943Z,13.33
2023-04-11T20:11:03.884Z,13.38
2023-04-11T20:13:33.674Z,13.42
2023-04-11T20:16:04.711Z,13.47
2023-04-11T20:18:33.378Z,13.49
2023-04-11T20:21:03.068Z,13.55
2023-04-11T20:23:33.514Z,13.57
2023-04-11T20:26:01.403Z,13.56
2023-04-11T20:28:30.994Z,13.60
2023-04-11T20:30:59.936Z,13.58
2023-04-11T20:33:28.688Z,13.53
2023-04-11T20:35:57.045Z,13.50
2023-04-11T20:38:26.416Z,13.38
2023-04-11T20:40:54.336Z,13.41
2023-04-11T20:43:25.314Z,13.39
2023-04-11T20:45:57.601Z,13.37
2023-04-11T20:48:25.996Z,13.38
2023-04-11T20:50:55.825Z,13.39
2023-04-11T20:53:24.387Z,13.39
2023-04-11T20:55:52.963Z,13.41
2023-04-11T20:58:21.525Z,13.41
2023-04-11T21:00:49.422Z,13.40
2023-04-11T21:03:18.814Z,13.41
2023-04-11T21:05:48.241Z,13.43
2023-04-11T21:08:16.179Z,13.41
2023-04-11T21:10:44.180Z,13.38
2023-04-11T21:13:12.059Z,13.39
2023-04-11T21:15:40.077Z,13.37
2023-04-11T21:18:08.040Z,13.39
2023-04-11T21:20:37.280Z,13.37
2023-04-11T21:23:05.201Z,13.32
2023-04-11T21:25:33.293Z,13.26
2023-04-11T21:28:01.268Z,13.19
2023-04-11T21:30:30.591Z,13.10
2023-04-11T21:32:58.564Z,13.12
2023-04-11T21:35:26.737Z,13.08
2023-04-11T21:37:56.006Z,13.11
2023-04-11T21:40:23.924Z,13.11
2023-04-11T21:42:51.796Z,13.11
2023-04-11T21:45:19.838Z,13.13
2023-04-11T21:47:47.717Z,13.14
2023-04-11T21:50:15.727Z,13.14
2023-04-11T21:52:44.559Z,13.13
2023-04-11T21:55:13.907Z,13.12
2023-04-11T21:57:41.824Z,13.07
2023-04-11T22:00:11.862Z,13.10
2023-04-11T22:02:39.939Z,13.03
2023-04-11T22:05:09.880Z,13.09
2023-04-11T22:07:47.417Z,13.11
2023-04-11T22:10:23.822Z,13.10
2023-04-11T22:12:53.960Z,13.08
2023-04-11T22:15:21.975Z,13.09
2023-04-11T22:17:51.216Z,13.06
2023-04-11T22:20:20.010Z,13.08
2023-04-11T22:22:47.966Z,13.05
2023-04-11T22:25:18.453Z,12.99
2023-04-11T22:27:46.425Z,13.03
2023-04-11T22:30:16.478Z,13.06
2023-04-11T22:32:44.454Z,13.10
2023-04-11T22:35:13.617Z,12.98
2023-04-11T22:37:41.616Z,12.42
2023-04-11T22:40:11.794Z,11.84
2023-04-11T22:42:41.701Z,11.42
2023-04-11T22:45:10.715Z,11.15
2023-04-11T22:47:40.184Z,10.91
2023-04-11T22:50:09.437Z,10.81
2023-04-11T22:52:37.834Z,10.81
2023-04-11T22:55:07.372Z,10.96
2023-04-11T22:57:36.882Z,11.11
2023-04-11T23:00:09.069Z,11.31
2023-04-11T23:02:37.516Z,11.48
2023-04-11T23:05:06.069Z,11.56
2023-04-11T23:07:34.438Z,11.56
2023-04-11T23:10:04.402Z,11.45
2023-04-11T23:12:32.404Z,11.30
2023-04-11T23:15:02.437Z,11.12
2023-04-11T23:17:31.893Z,10.98
2023-04-11T23:20:01.834Z,10.93
2023-04-11T23:22:29.749Z,10.99
2023-04-11T23:24:57.820Z,11.07
2023-04-11T23:27:25.715Z,11.15
2023-04-11T23:29:54.304Z,11.23
2023-04-11T23:32:22.964Z,11.36
2023-04-11T23:34:52.414Z,11.46
2023-04-11T23:37:20.411Z,11.60
2023-04-11T23:39:49.049Z,11.68
2023-04-11T23:42:16.966Z,11.76
2023-04-11T23:44:44.839Z,11.81
2023-04-11T23:47:12.692Z,11.82
2023-04-11T23:49:40.857Z,11.81
2023-04-11T23:52:11.164Z,11.84
2023-04-11T23:54:39.082Z,11.84
2023-04-11T23:57:07.188Z,11.99
2023-04-11T23:59:35.074Z,11.95
